Time;durP1;ratioP1;P1;durP2;ratioP2;P2;SDS_P1;SDS_P2;PMS_P1;PMS_P2;Temp;Humidity;BMP_temperature;BMP_pressure;BME280_temperature;BME280_humidity;BME280_pressure;Samples;Min_cycle;Max_cycle;Signal;HPM_P1;HPM_P2
2023/01/08 00:01:03;;;;;;;7.07;4.83;;;10.50;1.00;;;;;;5042786;28;20505;-68
2023/01/08 00:03:28;;;;;;;5.73;4.47;;;10.50;1.00;;;;;;5043192;28;20948;-69
2023/01/08 00:05:54;;;;;;;9.77;6.50;;;10.50;1.00;;;;;;5035787;28;20428;-70
2023/01/08 00:08:19;;;;;;;12.83;8.13;;;10.50;1.00;;;;;;5038667;28;20185;-69
2023/01/08 00:10:52;;;;;;;7.80;5.67;;;10.50;1.00;;;;;;5045701;28;20331;-69
2023/01/08 00:13:17;;;;;;;9.70;5.60;;;10.50;1.00;;;;;;5034036;28;20271;-70
2023/01/08 00:15:43;;;;;;;14.40;8.23;;;10.50;1.00;;;;;;5045595;28;20664;-70
2023/01/08 00:18:08;;;;;;;13.37;8.90;;;10.50;1.00;;;;;;5040581;28;20182;-69
2023/01/08 00:20:34;;;;;;;16.40;10.80;;;10.50;1.00;;;;;;5046815;28;20197;-70
2023/01/08 00:22:59;;;;;;;24.90;14.43;;;10.40;1.00;;;;;;5046844;28;20161;-70
2023/01/08 00:25:25;;;;;;;23.73;14.80;;;10.40;1.00;;;;;;5040624;28;20270;-67
2023/01/08 00:27:50;;;;;;;12.63;8.53;;;10.30;1.00;;;;;;5043688;28;20559;-70
2023/01/08 00:30:16;;;;;;;10.23;6.60;;;10.40;1.00;;;;;;5043468;28;20212;-69
2023/01/08 00:32:41;;;;;;;14.27;9.53;;;10.30;1.00;;;;;;5037238;28;20183;-70
2023/01/08 00:35:07;;;;;;;15.40;9.70;;;10.30;1.00;;;;;;5028521;28;20462;-69
2023/01/08 00:37:33;;;;;;;16.00;10.37;;;10.30;1.00;;;;;;5044960;28;20226;-70
2023/01/08 00:39:58;;;;;;;18.63;10.97;;;10.30;1.00;;;;;;5046992;28;20679;-69
2023/01/08 00:42:23;;;;;;;14.83;9.73;;;10.30;1.00;;;;;;5046635;28;20188;-69
2023/01/08 00:44:49;;;;;;;10.53;7.23;;;10.30;1.00;;;;;;5037049;28;20174;-70
2023/01/08 00:47:15;;;;;;;13.33;8.67;;;10.30;1.00;;;;;;5047809;28;20227;-69
2023/01/08 00:49:40;;;;;;;12.70;8.70;;;10.30;1.00;;;;;;5041505;28;20275;-69
2023/01/08 00:52:06;;;;;;;8.10;5.83;;;10.30;1.00;;;;;;5051200;28;20220;-70
2023/01/08 00:54:32;;;;;;;12.90;8.93;;;10.30;1.00;;;;;;5048189;28;20774;-69
2023/01/08 00:56:57;;;;;;;13.07;8.50;;;10.30;1.00;;;;;;5047386;28;20162;-69
2023/01/08 00:59:23;;;;;;;12.47;7.30;;;10.40;1.00;;;;;;5038409;28;20166;-70
2023/01/08 01:01:48;;;;;;;8.97;6.63;;;10.40;1.00;;;;;;5036557;28;20193;-69
2023/01/08 01:04:14;;;;;;;15.30;10.17;;;10.40;1.00;;;;;;5027821;28;20170;-69
2023/01/08 01:06:40;;;;;;;21.87;12.77;;;10.40;1.00;;;;;;5042256;28;20177;-72
2023/01/08 01:09:07;;;;;;;8.77;5.63;;;10.40;1.00;;;;;;5045234;28;20208;-72
2023/01/08 01:11:32;;;;;;;14.10;6.50;;;10.40;1.00;;;;;;5034257;28;20989;-72
2023/01/08 01:13:58;;;;;;;17.00;10.60;;;10.40;1.00;;;;;;5046446;28;20488;-72
2023/01/08 01:16:24;;;;;;;8.70;6.30;;;10.40;1.00;;;;;;5047009;28;20292;-71
2023/01/08 01:18:51;;;;;;;8.87;6.13;;;10.50;1.00;;;;;;5046260;28;20651;-74
2023/01/08 01:21:26;;;;;;;27.17;13.40;;;10.50;1.00;;;;;;5036513;28;20443;-72
2023/01/08 01:23:53;;;;;;;38.17;19.07;;;10.50;1.00;;;;;;5051837;28;20460;-72
2023/01/08 01:26:21;;;;;;;14.60;7.67;;;10.50;1.00;;;;;;5028049;28;20479;-71
2023/01/08 01:28:51;;;;;;;42.10;19.30;;;10.50;1.00;;;;;;5036457;28;20460;-72
2023/01/08 01:31:17;;;;;;;50.63;23.30;;;10.50;1.00;;;;;;5034950;28;20443;-72
2023/01/08 01:33:43;;;;;;;45.67;22.23;;;10.60;1.00;;;;;;5042889;28;20421;-72
2023/01/08 01:36:10;;;;;;;30.90;15.63;;;10.60;1.00;;;;;;5047408;28;20463;-72
2023/01/08 01:38:36;;;;;;;11.80;7.40;;;10.60;1.00;;;;;;5051166;28;20180;-72
2023/01/08 01:41:02;;;;;;;10.00;6.80;;;10.70;1.00;;;;;;5048510;28;20443;-72
2023/01/08 01:43:40;;;;;;;8.30;6.60;;;10.70;1.00;;;;;;5050224;28;20165;-70
2023/01/08 01:46:44;;;;;;;6.07;5.00;;;10.70;1.00;;;;;;5043775;28;20177;-72
2023/01/08 01:49:14;;;;;;;5.13;4.40;;;10.70;1.00;;;;;;5043207;28;20435;-72
2023/01/08 01:51:45;;;;;;;4.90;4.03;;;10.80;1.00;;;;;;5047775;28;20806;-72
2023/01/08 01:54:12;;;;;;;6.13;4.20;;;10.80;1.00;;;;;;5050074;28;20969;-72
2023/01/08 01:56:38;;;;;;;4.83;4.10;;;10.80;1.00;;;;;;5045277;28;20533;-72
2023/01/08 01:59:04;;;;;;;7.00;4.20;;;10.80;1.00;;;;;;5040406;28;20710;-72
2023/01/08 02:01:30;;;;;;;4.37;3.87;;;10.80;1.00;;;;;;5037340;28;20447;-73
2023/01/08 02:03:56;;;;;;;5.63;3.97;;;10.80;1.00;;;;;;5036364;28;20905;-72
2023/01/08 02:06:36;;;;;;;10.70;4.90;;;10.90;1.00;;;;;;5051167;28;20489;-72
2023/01/08 02:09:04;;;;;;;5.90;4.50;;;10.90;1.00;;;;;;5043522;28;20189;-72
2023/01/08 02:11:43;;;;;;;4.37;3.97;;;10.90;1.00;;;;;;5047296;28;20866;-72
2023/01/08 02:14:47;;;;;;;6.07;5.00;;;10.80;1.00;;;;;;5043694;28;20499;-72
2023/01/08 02:17:19;;;;;;;4.77;3.87;;;10.70;1.00;;;;;;5024862;28;20436;-73
2023/01/08 02:19:48;;;;;;;6.37;4.67;;;10.60;1.00;;;;;;5050372;28;20426;-72
2023/01/08 02:22:24;;;;;;;5.00;4.10;;;10.50;1.00;;;;;;5044469;28;21841;-72
2023/01/08 02:25:09;;;;;;;7.57;5.47;;;10.40;1.00;;;;;;5048741;28;20494;-72
2023/01/08 02:27:36;;;;;;;5.07;4.40;;;10.40;1.00;;;;;;5046984;28;20882;-73
2023/01/08 02:30:04;;;;;;;5.77;4.30;;;10.40;1.00;;;;;;5045410;28;20436;-72
2023/01/08 02:32:36;;;;;;;5.27;4.20;;;10.30;1.00;;;;;;5045147;28;20486;-72
2023/01/08 02:35:04;;;;;;;10.13;4.37;;;10.30;1.00;;;;;;5042692;28;20451;-72
2023/01/08 02:37:29;;;;;;;7.73;4.40;;;10.40;1.00;;;;;;5049903;28;20434;-72
2023/01/08 02:40:07;;;;;;;4.60;3.90;;;10.40;1.00;;;;;;5046371;28;20877;-72
2023/01/08 02:42:49;;;;;;;5.40;4.80;;;10.40;1.00;;;;;;5038566;28;20390;-72
2023/01/08 02:45:35;;;;;;;4.90;4.03;;;10.50;1.00;;;;;;5039108;28;20733;-72
2023/01/08 02:48:12;;;;;;;5.10;4.30;;;10.50;1.00;;;;;;5046660;28;20837;-72
2023/01/08 02:53:16;;;;;;;5.70;4.10;;;10.50;1.00;;;;;;5044142;22;20573;-71
2023/01/08 02:55:47;;;;;;;5.03;4.53;;;10.50;1.00;;;;;;5031248;28;20691;-70
2023/01/08 02:58:13;;;;;;;5.50;4.40;;;10.50;1.00;;;;;;5029200;28;20463;-70
2023/01/08 03:00:40;;;;;;;6.10;4.77;;;10.50;1.00;;;;;;5030141;28;20688;-71
2023/01/08 03:03:14;;;;;;;6.23;4.50;;;10.50;1.00;;;;;;5011211;28;20490;-70
2023/01/08 03:05:44;;;;;;;6.60;4.67;;;10.50;1.00;;;;;;5031070;28;20423;-70
2023/01/08 03:08:11;;;;;;;7.83;4.67;;;10.50;1.00;;;;;;5028999;28;20429;-70
2023/01/08 03:10:39;;;;;;;6.50;5.30;;;10.40;1.00;;;;;;5030264;28;20451;-71
2023/01/08 03:13:12;;;;;;;6.63;5.30;;;10.40;1.00;;;;;;5026357;28;20436;-70
2023/01/08 03:15:48;;;;;;;5.80;5.20;;;10.30;1.00;;;;;;5027838;28;20519;-70
2023/01/08 03:18:20;;;;;;;7.80;5.83;;;10.30;1.00;;;;;;5023126;28;20531;-68
2023/01/08 03:20:48;;;;;;;6.83;5.20;;;10.20;1.00;;;;;;5029131;28;20429;-70
2023/01/08 03:23:16;;;;;;;10.23;5.97;;;10.20;1.00;;;;;;5035041;28;20454;-70
2023/01/08 03:25:46;;;;;;;8.40;5.97;;;10.20;1.00;;;;;;5039699;28;20442;-71
2023/01/08 03:28:23;;;;;;;6.60;5.57;;;10.20;1.00;;;;;;5029997;28;20919;-71
2023/01/08 03:30:50;;;;;;;7.23;5.53;;;10.20;1.00;;;;;;5027974;28;20442;-70
2023/01/08 03:33:18;;;;;;;5.97;5.23;;;10.20;1.00;;;;;;5029025;28;20421;-71
2023/01/08 03:35:48;;;;;;;8.03;5.77;;;10.20;1.00;;;;;;5029281;28;20967;-70
2023/01/08 03:38:19;;;;;;;8.10;5.00;;;10.10;1.00;;;;;;5022799;28;20459;-70
2023/01/08 03:40:48;;;;;;;8.20;6.53;;;10.20;1.00;;;;;;5028777;28;20471;-69
2023/01/08 03:43:13;;;;;;;6.60;5.70;;;10.20;1.00;;;;;;5023066;28;20404;-70
2023/01/08 03:45:49;;;;;;;7.13;5.60;;;10.30;1.00;;;;;;5028958;28;20463;-70
2023/01/08 03:48:17;;;;;;;8.83;5.70;;;10.40;1.00;;;;;;5029333;28;20174;-70
2023/01/08 03:50:42;;;;;;;5.90;5.30;;;10.40;1.00;;;;;;5028697;28;20436;-70
2023/01/08 03:53:08;;;;;;;6.57;5.07;;;10.40;1.00;;;;;;5035716;28;20434;-71
2023/01/08 03:55:34;;;;;;;7.17;4.83;;;10.30;1.00;;;;;;5029415;28;20693;-70
2023/01/08 03:57:59;;;;;;;7.67;4.70;;;10.30;1.00;;;;;;5029079;28;20174;-70
2023/01/08 04:00:25;;;;;;;5.80;4.33;;;10.30;1.00;;;;;;5027857;28;20281;-71
2023/01/08 04:02:50;;;;;;;8.00;5.00;;;10.30;1.00;;;;;;5028346;28;20201;-70
2023/01/08 04:05:16;;;;;;;5.67;4.50;;;10.30;1.00;;;;;;5029071;28;20177;-70
2023/01/08 04:07:41;;;;;;;5.47;4.37;;;10.30;1.00;;;;;;5010712;28;20185;-70
2023/01/08 04:10:07;;;;;;;6.93;4.97;;;10.40;1.00;;;;;;5027966;28;20173;-69
2023/01/08 04:12:33;;;;;;;5.53;4.63;;;10.40;1.00;;;;;;5009941;28;20733;-70
2023/01/08 04:14:58;;;;;;;8.43;5.07;;;10.30;1.00;;;;;;5028570;28;20233;-70
2023/01/08 04:17:24;;;;;;;6.40;5.43;;;10.30;1.00;;;;;;5009810;28;20544;-70
2023/01/08 04:19:49;;;;;;;8.27;4.90;;;10.30;1.00;;;;;;5029219;28;20380;-70
2023/01/08 04:22:15;;;;;;;6.30;5.07;;;10.30;1.00;;;;;;5034064;28;20585;-71
2023/01/08 04:24:40;;;;;;;5.90;5.00;;;10.20;1.00;;;;;;5029557;28;20221;-70
2023/01/08 04:27:06;;;;;;;5.83;4.70;;;10.10;1.00;;;;;;5027848;28;20177;-70
2023/01/08 04:29:31;;;;;;;6.73;4.80;;;10.10;1.00;;;;;;5029615;28;20203;-70
2023/01/08 04:31:57;;;;;;;6.93;4.83;;;10.00;1.00;;;;;;5027225;28;20241;-70
2023/01/08 04:34:22;;;;;;;8.23;5.37;;;9.90;1.00;;;;;;5011465;28;20189;-71
2023/01/08 04:36:48;;;;;;;6.83;5.07;;;9.60;1.00;;;;;;5010178;28;20557;-69
2023/01/08 04:39:13;;;;;;;7.87;5.30;;;9.40;1.00;;;;;;5028957;28;20280;-70
2023/01/08 04:41:39;;;;;;;6.47;5.17;;;9.30;1.00;;;;;;5026708;28;20205;-70
2023/01/08 04:44:04;;;;;;;7.00;5.40;;;9.10;1.00;;;;;;5028588;28;20174;-70
2023/01/08 04:46:30;;;;;;;7.33;5.37;;;9.00;1.00;;;;;;5018333;28;20816;-70
2023/01/08 04:48:55;;;;;;;6.60;5.00;;;8.90;1.00;;;;;;5016980;28;20205;-71
2023/01/08 04:51:22;;;;;;;7.70;5.77;;;8.90;1.00;;;;;;5027898;28;20324;-70
2023/01/08 04:53:47;;;;;;;8.63;5.53;;;8.80;1.00;;;;;;5035507;28;20185;-70
2023/01/08 04:56:13;;;;;;;8.73;5.57;;;8.90;1.00;;;;;;5028265;28;20456;-70
2023/01/08 04:58:39;;;;;;;8.17;5.93;;;8.90;1.00;;;;;;5011313;28;20617;-70
2023/01/08 05:01:19;;;;;;;7.57;6.13;;;8.80;1.00;;;;;;5026548;28;20217;-70
2023/01/08 05:03:45;;;;;;;11.50;5.70;;;8.80;1.00;;;;;;5028869;28;20935;-70
2023/01/08 05:06:10;;;;;;;7.90;5.90;;;8.70;1.00;;;;;;5027437;28;20436;-70
2023/01/08 05:08:36;;;;;;;7.23;5.97;;;8.60;1.00;;;;;;5028697;28;20260;-71
2023/01/08 05:11:02;;;;;;;7.60;5.60;;;8.60;4.10;;;;;;5026056;28;20197;-69
2023/01/08 05:13:28;;;;;;;7.20;5.50;;;8.70;3.70;;;;;;5029132;28;20224;-71
2023/01/08 05:15:53;;;;;;;7.37;5.50;;;8.60;1.00;;;;;;5027397;28;20532;-71
2023/01/08 05:18:19;;;;;;;11.20;6.10;;;8.60;6.00;;;;;;5030171;28;20206;-70
2023/01/08 05:20:44;;;;;;;7.27;5.17;;;8.60;10.30;;;;;;5009823;28;20220;-70
2023/01/08 05:23:10;;;;;;;6.80;5.27;;;8.60;13.90;;;;;;5032488;28;20197;-70
2023/01/08 05:25:35;;;;;;;8.03;5.43;;;8.60;13.00;;;;;;5031367;28;20185;-71
2023/01/08 05:28:01;;;;;;;9.47;6.80;;;8.50;14.80;;;;;;5027914;28;20201;-71
2023/01/08 05:30:26;;;;;;;7.73;5.27;;;8.50;15.60;;;;;;5026917;28;20222;-70
2023/01/08 05:32:52;;;;;;;7.00;5.80;;;8.60;17.50;;;;;;5026971;28;20260;-69
2023/01/08 05:35:17;;;;;;;8.90;5.57;;;8.60;19.30;;;;;;5023761;28;20201;-68
2023/01/08 05:37:43;;;;;;;6.40;5.60;;;8.60;20.30;;;;;;5027415;28;20189;-70
2023/01/08 05:40:09;;;;;;;8.10;5.97;;;8.50;18.80;;;;;;5027770;28;20189;-69
2023/01/08 05:42:36;;;;;;;13.80;6.27;;;8.50;21.30;;;;;;5026539;28;20206;-70
2023/01/08 05:45:04;;;;;;;10.53;5.90;;;8.50;22.00;;;;;;5024887;28;20447;-70
2023/01/08 05:47:30;;;;;;;7.23;5.80;;;8.40;23.70;;;;;;5027340;28;20504;-68
2023/01/08 05:49:56;;;;;;;7.20;5.53;;;8.40;25.90;;;;;;5027159;28;20939;-69
2023/01/08 05:52:21;;;;;;;8.97;5.70;;;8.40;25.20;;;;;;5029619;28;20471;-70
2023/01/08 05:54:47;;;;;;;9.50;5.97;;;8.40;28.00;;;;;;5028164;28;20276;-70
2023/01/08 05:57:12;;;;;;;8.73;5.87;;;8.40;29.20;;;;;;5026737;28;20174;-69
2023/01/08 05:59:38;;;;;;;8.43;5.50;;;8.40;32.50;;;;;;5028293;28;20178;-69
2023/01/08 06:02:03;;;;;;;8.70;5.83;;;8.40;28.70;;;;;;5008557;28;20186;-70
2023/01/08 06:04:29;;;;;;;6.50;5.57;;;8.30;31.20;;;;;;5028049;28;20174;-68
2023/01/08 06:06:54;;;;;;;7.40;5.77;;;8.40;35.10;;;;;;5026755;28;20178;-69
2023/01/08 06:09:20;;;;;;;8.07;6.27;;;8.40;37.20;;;;;;5028472;28;20265;-70
2023/01/08 06:11:46;;;;;;;7.27;5.27;;;8.40;37.20;;;;;;5008245;28;20251;-69
2023/01/08 06:14:11;;;;;;;9.93;6.50;;;8.40;37.40;;;;;;5026951;28;20193;-69
2023/01/08 06:16:37;;;;;;;8.67;5.40;;;8.40;37.40;;;;;;5024987;28;20198;-68
2023/01/08 06:19:02;;;;;;;7.57;5.97;;;8.40;37.60;;;;;;5026827;28;20270;-71
2023/01/08 06:21:27;;;;;;;7.20;5.13;;;8.40;37.50;;;;;;5016470;28;20243;-69
2023/01/08 06:23:53;;;;;;;7.90;5.60;;;8.40;37.50;;;;;;5030465;28;20190;-70
2023/01/08 06:26:18;;;;;;;6.73;5.17;;;8.40;37.50;;;;;;5031082;28;20311;-71
2023/01/08 06:28:44;;;;;;;7.53;6.03;;;8.50;37.60;;;;;;5029399;28;20285;-69
2023/01/08 06:31:09;;;;;;;9.03;6.03;;;8.50;37.60;;;;;;5029380;28;20206;-68
2023/01/08 06:33:35;;;;;;;6.53;5.10;;;8.50;37.60;;;;;;5009012;28;20220;-68
2023/01/08 06:36:03;;;;;;;6.60;4.93;;;8.50;37.50;;;;;;5020439;28;20276;-67
2023/01/08 06:38:32;;;;;;;7.97;5.27;;;8.50;37.50;;;;;;5031770;28;20552;-69
2023/01/08 06:41:01;;;;;;;7.50;4.70;;;8.50;37.60;;;;;;5028779;28;20510;-69
2023/01/08 06:43:26;;;;;;;7.27;5.33;;;8.50;37.60;;;;;;5031867;28;20420;-70
2023/01/08 06:45:53;;;;;;;7.70;5.20;;;8.60;37.70;;;;;;5029646;28;20655;-69
2023/01/08 06:48:19;;;;;;;5.80;4.70;;;8.70;37.80;;;;;;5030627;28;20186;-69
2023/01/08 06:50:44;;;;;;;8.50;5.10;;;8.70;37.70;;;;;;5028120;28;20443;-71
2023/01/08 06:53:10;;;;;;;9.87;5.50;;;8.70;37.90;;;;;;5016889;28;20191;-71
2023/01/08 06:55:37;;;;;;;8.30;4.57;;;8.70;37.80;;;;;;5033143;28;20587;-69
2023/01/08 06:58:02;;;;;;;5.70;5.00;;;8.70;30.10;;;;;;5031060;28;20676;-70
2023/01/08 07:00:28;;;;;;;8.80;5.70;;;8.80;37.70;;;;;;5007934;28;20719;-70
2023/01/08 07:02:54;;;;;;;7.23;5.37;;;8.80;37.80;;;;;;5029657;28;20189;-70
2023/01/08 07:05:20;;;;;;;8.17;5.10;;;8.80;37.80;;;;;;5030134;28;20210;-70
2023/01/08 07:07:46;;;;;;;8.13;4.87;;;8.80;37.90;;;;;;5029342;28;20525;-70
2023/01/08 07:10:11;;;;;;;6.07;4.87;;;8.80;37.80;;;;;;5031412;28;20174;-71
2023/01/08 07:12:37;;;;;;;8.53;5.47;;;8.80;37.80;;;;;;5028623;28;20229;-70
2023/01/08 07:15:03;;;;;;;12.53;6.00;;;8.80;37.80;;;;;;5029672;28;20209;-70
2023/01/08 07:17:30;;;;;;;6.40;4.57;;;8.80;37.80;;;;;;5029194;28;20247;-70
2023/01/08 07:19:56;;;;;;;6.67;5.10;;;8.80;37.80;;;;;;5029699;28;20174;-71
2023/01/08 07:22:23;;;;;;;7.00;5.83;;;8.90;38.00;;;;;;5032028;28;20447;-69
2023/01/08 07:24:48;;;;;;;10.07;5.53;;;8.90;38.00;;;;;;5034138;28;20177;-71
2023/01/08 07:27:14;;;;;;;7.13;5.27;;;8.90;37.70;;;;;;5029860;28;20946;-70
2023/01/08 07:29:39;;;;;;;7.73;5.57;;;8.90;37.90;;;;;;5029480;28;20208;-70
2023/01/08 07:32:05;;;;;;;9.30;5.90;;;8.90;38.10;;;;;;5027643;28;20197;-70
2023/01/08 07:34:31;;;;;;;9.27;5.53;;;8.90;38.00;;;;;;5011307;28;20732;-71
2023/01/08 07:36:57;;;;;;;7.43;5.20;;;9.00;38.10;;;;;;5011798;28;20252;-72
2023/01/08 07:39:22;;;;;;;7.40;5.40;;;9.00;38.10;;;;;;5029947;28;20531;-70
2023/01/08 07:41:47;;;;;;;9.30;6.40;;;9.00;37.90;;;;;;5027921;28;20672;-70
2023/01/08 07:44:13;;;;;;;9.50;6.40;;;9.00;38.20;;;;;;5028177;28;20174;-72
2023/01/08 07:46:39;;;;;;;7.67;5.77;;;9.00;38.00;;;;;;5037626;28;20639;-71
2023/01/08 07:49:05;;;;;;;8.10;6.30;;;9.30;38.30;;;;;;5015190;28;20186;-70
2023/01/08 07:51:30;;;;;;;14.83;6.23;;;9.00;38.00;;;;;;5010617;28;20454;-70
2023/01/08 07:53:56;;;;;;;8.20;6.27;;;9.00;38.20;;;;;;5037597;28;20432;-71
2023/01/08 07:56:23;;;;;;;10.27;6.50;;;9.00;38.10;;;;;;5007619;28;20377;-71
2023/01/08 07:58:48;;;;;;;9.73;6.73;;;9.00;38.00;;;;;;5029049;28;20166;-71
2023/01/08 08:01:15;;;;;;;9.73;6.57;;;9.10;38.20;;;;;;5010059;28;20864;-71
2023/01/08 08:03:40;;;;;;;16.13;6.90;;;9.10;38.20;;;;;;5011754;28;20264;-72
2023/01/08 08:06:06;;;;;;;9.60;6.70;;;9.00;38.20;;;;;;5028669;28;20524;-71
2023/01/08 08:08:32;;;;;;;9.83;7.43;;;9.00;38.20;;;;;;5028433;28;20264;-71
2023/01/08 08:10:58;;;;;;;9.77;7.20;;;9.00;38.10;;;;;;5027731;28;21354;-68
2023/01/08 08:13:23;;;;;;;9.83;6.90;;;9.00;38.20;;;;;;5029443;28;20206;-71
2023/01/08 08:15:49;;;;;;;11.23;6.63;;;9.00;38.10;;;;;;5028412;28;20240;-71
2023/01/08 08:18:14;;;;;;;9.63;6.50;;;8.90;38.10;;;;;;5026824;28;20186;-70
2023/01/08 08:20:40;;;;;;;7.33;5.27;;;8.90;38.30;;;;;;5030086;28;20190;-69
2023/01/08 08:23:14;;;;;;;11.20;6.17;;;9.00;38.50;;;;;;5014860;28;20190;-69
2023/01/08 08:25:41;;;;;;;8.90;5.30;;;9.10;38.20;;;;;;5026602;28;20181;-71
2023/01/08 08:28:08;;;;;;;7.17;5.63;;;9.10;40.80;;;;;;5028113;28;20421;-70
2023/01/08 08:30:36;;;;;;;6.67;5.00;;;9.10;38.80;;;;;;5027693;28;20499;-70
2023/01/08 08:33:03;;;;;;;6.47;4.73;;;9.10;42.00;;;;;;5027787;28;20479;-70
2023/01/08 08:35:30;;;;;;;8.73;5.00;;;9.10;45.20;;;;;;5010419;28;20468;-70
2023/01/08 15:36:15;;;;;;;1.35;1.23;;;10.60;1.00;;;;;;5035891;27;20452;-70
2023/01/08 15:38:40;;;;;;;1.73;1.60;;;10.60;1.00;;;;;;5039970;27;20177;-73
2023/01/08 15:41:09;;;;;;;1.67;1.50;;;10.70;1.00;;;;;;5040427;28;20217;-72
2023/01/08 15:43:34;;;;;;;1.60;1.50;;;10.90;1.00;;;;;;5039479;28;20315;-73
2023/01/08 15:46:00;;;;;;;5.43;1.30;;;11.00;1.00;;;;;;5034584;28;20502;-70
2023/01/08 15:48:25;;;;;;;3.97;1.50;;;11.10;1.00;;;;;;5041639;28;20610;-71
2023/01/08 15:50:52;;;;;;;1.33;1.10;;;11.10;1.00;;;;;;5041369;28;20181;-71
2023/01/08 15:53:23;;;;;;;1.80;1.70;;;11.20;1.00;;;;;;5036552;28;20217;-73
2023/01/08 15:55:49;;;;;;;2.00;1.53;;;11.30;1.00;;;;;;5036009;28;21002;-74
2023/01/08 15:58:15;;;;;;;2.00;1.50;;;11.30;1.00;;;;;;5041194;28;20446;-71
2023/01/08 16:00:42;;;;;;;1.60;1.43;;;11.30;1.00;;;;;;5038307;28;20522;-72
2023/01/08 16:03:10;;;;;;;3.37;1.90;;;11.40;1.00;;;;;;5035442;28;20255;-74
2023/01/08 16:05:35;;;;;;;2.60;2.07;;;11.40;1.00;;;;;;5039136;28;20428;-71
2023/01/08 16:08:01;;;;;;;2.80;2.27;;;11.40;1.00;;;;;;5040649;28;20432;-69
2023/01/08 16:10:28;;;;;;;2.10;1.70;;;11.40;1.00;;;;;;5044287;28;20181;-71
2023/01/08 16:12:53;;;;;;;1.80;1.70;;;11.40;1.00;;;;;;5041780;28;20439;-71
2023/01/08 16:15:19;;;;;;;2.10;1.90;;;11.40;1.00;;;;;;5043810;28;20451;-71
2023/01/08 16:17:45;;;;;;;3.27;2.07;;;11.40;1.00;;;;;;5042342;28;20173;-74
2023/01/08 16:20:12;;;;;;;4.43;2.10;;;11.30;1.00;;;;;;5043711;28;20181;-71
2023/01/08 16:22:38;;;;;;;2.90;2.07;;;11.30;1.00;;;;;;5041850;28;20679;-71
2023/01/08 16:25:04;;;;;;;4.70;3.00;;;11.20;1.00;;;;;;5044117;28;20416;-73
2023/01/08 16:27:30;;;;;;;3.23;2.67;;;11.20;1.00;;;;;;5042003;28;20184;-74
2023/01/08 16:29:56;;;;;;;12.03;3.47;;;11.10;1.00;;;;;;5043197;28;20990;-71
2023/01/08 16:32:21;;;;;;;14.60;6.20;;;11.10;1.00;;;;;;5041474;28;20440;-71
2023/01/08 16:34:47;;;;;;;18.37;8.23;;;11.00;1.00;;;;;;5043279;28;20220;-72
2023/01/08 16:37:13;;;;;;;9.27;4.40;;;11.20;1.00;;;;;;5042776;28;20219;-71
2023/01/08 16:39:38;;;;;;;5.53;3.90;;;11.10;1.00;;;;;;5043605;28;20170;-72
2023/01/08 16:42:04;;;;;;;4.00;3.03;;;11.10;1.00;;;;;;5041109;28;20198;-71
2023/01/08 16:44:31;;;;;;;4.27;3.20;;;11.20;1.00;;;;;;5043127;28;20185;-72
2023/01/08 16:46:57;;;;;;;3.33;3.00;;;11.10;1.00;;;;;;5033155;28;20640;-74
2023/01/08 16:49:23;;;;;;;5.40;4.47;;;11.10;1.00;;;;;;5029890;28;20495;-71
2023/01/08 16:51:48;;;;;;;6.40;3.53;;;11.10;1.00;;;;;;5028539;28;20212;-71
2023/01/08 16:54:15;;;;;;;5.00;2.73;;;11.10;1.00;;;;;;5029558;28;20223;-71
2023/01/08 16:56:41;;;;;;;3.00;2.70;;;11.10;1.00;;;;;;5028811;28;20628;-71
2023/01/08 16:59:08;;;;;;;3.10;2.80;;;11.10;1.00;;;;;;5029891;28;20760;-74
2023/01/08 17:01:33;;;;;;;4.50;2.67;;;11.10;1.00;;;;;;5028003;28;20508;-74
2023/01/08 17:03:59;;;;;;;3.30;2.90;;;11.10;1.00;;;;;;5029619;28;20451;-71
2023/01/08 17:06:24;;;;;;;4.67;3.70;;;11.20;1.00;;;;;;5021081;28;20173;-71
2023/01/08 17:08:50;;;;;;;2.90;2.60;;;11.20;1.00;;;;;;5029573;28;20197;-74
2023/01/08 17:11:18;;;;;;;4.67;3.40;;;11.20;1.00;;;;;;5027871;28;20178;-71
2023/01/08 17:13:43;;;;;;;3.63;2.77;;;11.20;1.00;;;;;;5029069;28;20231;-70
2023/01/08 17:16:11;;;;;;;5.63;3.93;;;11.20;1.00;;;;;;5027511;28;20979;-69
2023/01/08 17:18:37;;;;;;;4.27;3.03;;;11.20;1.00;;;;;;5026864;28;20645;-69
2023/01/08 17:21:03;;;;;;;5.90;4.60;;;11.20;1.00;;;;;;5026919;28;20431;-68
2023/01/08 17:23:29;;;;;;;6.70;5.23;;;11.30;1.00;;;;;;5028753;28;20166;-74
2023/01/08 17:25:56;;;;;;;5.23;4.60;;;11.30;1.00;;;;;;5028541;28;20520;-72
2023/01/08 17:28:27;;;;;;;5.50;4.40;;;11.30;1.00;;;;;;5029039;28;20197;-71
2023/01/08 17:30:53;;;;;;;5.80;4.23;;;11.20;1.00;;;;;;5027938;28;20420;-68
2023/01/08 17:33:19;;;;;;;6.00;5.37;;;11.20;1.00;;;;;;5027699;28;20475;-71
2023/01/08 17:35:46;;;;;;;5.23;4.33;;;10.70;1.00;;;;;;5028440;28;20969;-72
2023/01/08 17:38:11;;;;;;;4.20;3.43;;;11.20;1.00;;;;;;5026429;28;20440;-71
2023/01/08 17:40:37;;;;;;;3.90;3.40;;;11.10;1.00;;;;;;5028988;28;20925;-70
2023/01/08 17:43:02;;;;;;;5.07;4.10;;;11.10;1.00;;;;;;5027636;28;20227;-72
2023/01/08 17:45:28;;;;;;;5.20;4.03;;;11.10;1.00;;;;;;5028791;28;20209;-70
2023/01/08 17:47:53;;;;;;;4.50;4.07;;;11.10;1.00;;;;;;5027177;28;20358;-70
2023/01/08 17:50:19;;;;;;;4.33;3.93;;;11.10;1.00;;;;;;5028558;28;20193;-71
2023/01/08 17:52:44;;;;;;;3.97;3.40;;;11.20;1.00;;;;;;5027035;28;20205;-73
2023/01/08 17:55:10;;;;;;;4.27;3.30;;;11.10;1.00;;;;;;5028614;28;20672;-71
2023/01/08 17:57:35;;;;;;;6.20;4.13;;;11.20;1.00;;;;;;5026469;28;20308;-71
2023/01/08 18:00:01;;;;;;;8.57;4.90;;;11.10;1.00;;;;;;5026508;28;20172;-74
2023/01/08 18:02:26;;;;;;;10.90;5.77;;;11.10;1.00;;;;;;5026197;28;20569;-70
2023/01/08 18:04:52;;;;;;;8.97;4.77;;;11.10;1.00;;;;;;5027897;28;20170;-71
2023/01/08 18:07:18;;;;;;;7.40;3.93;;;11.10;1.00;;;;;;5026620;28;20189;-72
2023/01/08 18:09:43;;;;;;;7.83;2.63;;;11.10;1.00;;;;;;5028139;28;20246;-70
2023/01/08 18:12:09;;;;;;;3.67;2.50;;;11.00;1.00;;;;;;5026541;28;20222;-71
2023/01/08 18:14:37;;;;;;;3.43;2.40;;;10.90;1.00;;;;;;5028213;28;20614;-72
2023/01/08 18:17:04;;;;;;;5.13;2.50;;;10.80;1.00;;;;;;5026317;28;20162;-70
2023/01/08 18:19:29;;;;;;;3.40;2.77;;;10.70;1.00;;;;;;5028149;28;20753;-70
2023/01/08 18:21:55;;;;;;;3.30;2.40;;;10.70;1.00;;;;;;5025972;28;20582;-73
2023/01/08 18:24:20;;;;;;;2.53;2.30;;;10.60;1.00;;;;;;5027490;28;20556;-71
2023/01/08 18:26:48;;;;;;;2.67;2.43;;;10.70;1.00;;;;;;5027327;28;20214;-70
2023/01/08 18:29:13;;;;;;;3.50;2.30;;;10.60;1.00;;;;;;5027897;28;20181;-71
2023/01/08 18:31:40;;;;;;;2.60;2.13;;;10.70;1.00;;;;;;5026554;28;20425;-70
2023/01/08 18:34:05;;;;;;;2.40;2.20;;;10.60;1.00;;;;;;5027390;28;20261;-71
2023/01/08 18:36:31;;;;;;;6.00;4.40;;;10.60;1.00;;;;;;5027028;28;20659;-71
2023/01/08 18:38:56;;;;;;;4.17;3.43;;;10.60;1.00;;;;;;5027080;28;20170;-71
2023/01/08 18:44:08;;;;;;;5.00;3.83;;;10.60;1.00;;;;;;5027669;28;20220;-71
2023/01/08 18:46:34;;;;;;;4.20;3.20;;;10.60;1.00;;;;;;5026417;28;20623;-71
2023/01/08 18:48:59;;;;;;;7.63;5.53;;;10.60;1.00;;;;;;5027171;28;20525;-71
2023/01/08 18:51:25;;;;;;;7.40;4.80;;;10.60;1.00;;;;;;5025283;28;20996;-71
2023/01/08 18:53:51;;;;;;;11.97;7.20;;;10.60;1.00;;;;;;5027363;28;20656;-71
2023/01/08 18:56:32;;;;;;;8.73;6.53;;;10.60;1.00;;;;;;5026578;28;21013;-71
2023/01/08 18:58:58;;;;;;;5.20;3.87;;;10.60;1.00;;;;;;5027406;28;20424;-70
2023/01/08 19:01:24;;;;;;;3.70;3.30;;;10.70;1.00;;;;;;5025228;28;20445;-71
2023/01/08 19:03:50;;;;;;;4.90;4.10;;;10.60;1.00;;;;;;5026969;28;20488;-70
2023/01/08 19:06:16;;;;;;;4.13;3.30;;;10.70;1.00;;;;;;5026036;28;20869;-71
2023/01/08 19:08:43;;;;;;;3.63;2.90;;;10.70;1.00;;;;;;5026599;28;20178;-70
2023/01/08 19:11:10;;;;;;;3.83;2.70;;;10.70;1.00;;;;;;5026067;28;20501;-70
2023/01/08 19:13:36;;;;;;;4.63;3.27;;;10.70;1.00;;;;;;5027296;28;20452;-72
2023/01/08 19:16:04;;;;;;;3.50;3.00;;;10.70;1.00;;;;;;5025587;28;20456;-71
2023/01/08 19:18:29;;;;;;;5.40;4.17;;;10.70;1.00;;;;;;5026222;28;21616;-70
2023/01/08 19:20:55;;;;;;;5.90;4.10;;;10.70;1.00;;;;;;5026200;28;20425;-70
2023/01/08 19:23:20;;;;;;;4.63;3.57;;;10.70;1.00;;;;;;5024124;28;20198;-72
2023/01/08 19:25:46;;;;;;;3.73;3.20;;;10.70;1.00;;;;;;5020168;28;20175;-73
2023/01/08 19:28:11;;;;;;;3.10;2.47;;;10.70;1.00;;;;;;5023800;28;20186;-71
2023/01/08 19:30:37;;;;;;;3.63;2.30;;;10.70;1.00;;;;;;5023485;28;20186;-77
2023/01/08 19:33:03;;;;;;;3.08;2.42;;;10.90;16.80;;;;;;5021993;28;20438;-70
2023/01/08 19:35:28;;;;;;;3.30;3.00;;;11.10;1.00;;;;;;5024796;28;20698;-72
2023/01/08 19:37:54;;;;;;;3.00;2.70;;;11.10;1.00;;;;;;5024984;28;20384;-70
2023/01/08 19:40:19;;;;;;;3.33;2.87;;;11.00;1.00;;;;;;5026165;28;20209;-71
2023/01/08 19:45:29;;;;;;;3.90;3.07;;;10.90;1.00;;;;;;5017570;28;20181;-71
2023/01/08 19:47:55;;;;;;;4.60;3.17;;;10.80;1.00;;;;;;5024737;28;20409;-70
2023/01/08 19:50:22;;;;;;;3.80;2.80;;;10.80;1.00;;;;;;5025166;28;20548;-71
2023/01/08 19:52:47;;;;;;;3.00;2.70;;;10.70;1.00;;;;;;5024594;28;20282;-72
2023/01/08 19:55:13;;;;;;;3.97;3.00;;;10.80;1.00;;;;;;5024955;28;20555;-71
2023/01/08 19:57:38;;;;;;;2.90;2.57;;;10.70;1.00;;;;;;5025041;28;20170;-70
2023/01/08 20:00:04;;;;;;;3.93;2.97;;;10.70;1.00;;;;;;5020388;28;20750;-70